Salt Lake City, Utah
Traffic Map
Current Weather Conditions
Salt Lake City, Utah
Broken Clouds
Broken Clouds
69°
Feels Like: 69°
Wind Chill: 69° Ceiling: 20000
Heat Index: 69° Visibility: 10mi
Dew Point: 36° Wind: 13mph
Humidity: 30% Direction: 160° (SSE)
Pressure: 29.96in Gusts: 0mph
Raw Report DataKSLC 231354Z 16011KT 10SM SCT140 BKN200 21/02 A2996 RMK AO2 SLP096 T02060022
Traffic Incident Summary
Active as of:
Severity:
Category:
InformationThere was an issue retrieving the traffic information for this location. Please try a different location or try again shortly.
Advertisements